Time;durP1;ratioP1;P1;durP2;ratioP2;P2;SDS_P1;SDS_P2;PMS_P1;PMS_P2;Temp;Humidity;BMP_temperature;BMP_pressure;BME280_temperature;BME280_humidity;BME280_pressure;Samples;Min_cycle;Max_cycle;Signal;HPM_P1;HPM_P2
2023/09/23 00:01:59;;;;;;;9.52;6.10;;;;;;;;;;5113247;28;20074;-72
2023/09/23 00:04:25;;;;;;;11.10;6.85;;;;;;;;;;5113912;28;20138;-72
2023/09/23 00:06:51;;;;;;;;;;;;;;;;;;5112958;28;20051;-71
2023/09/23 00:09:18;;;;;;;11.83;7.30;;;;;;;;;;5113029;28;19926;-71
2023/09/23 00:11:44;;;;;;;9.95;6.40;;;;;;;;;;5113234;28;20050;-71
2023/09/23 00:14:11;;;;;;;12.05;7.60;;;;;;;;;;5097023;28;20093;-71
2023/09/23 00:16:37;;;;;;;13.77;7.22;;;;;;;;;;5096200;28;20431;-72
2023/09/23 00:19:03;;;;;;;;;;;;;;;;;;5131408;27;20040;-72
2023/09/23 00:21:29;;;;;;;13.05;7.40;;;;;;;;;;5119368;27;19923;-72
2023/09/23 00:23:57;;;;;;;11.27;6.57;;;;;;;;;;5116370;27;20125;-71
2023/09/23 00:26:26;;;;;;;10.70;7.07;;;;;;;;;;5134097;27;20381;-71
2023/09/23 00:28:52;;;;;;;11.82;7.28;;;;;;;;;;5133832;27;20103;-71
2023/09/23 00:31:18;;;;;;;10.48;6.57;;;;;;;;;;5115591;27;20083;-71
2023/09/23 00:33:45;;;;;;;14.32;7.13;;;;;;;;;;5112859;28;20131;-71
2023/09/23 00:36:11;;;;;;;10.75;7.00;;;;;;;;;;5114634;27;20491;-72
2023/09/23 00:38:37;;;;;;;12.45;7.38;;;;;;;;;;5112472;27;20047;-72
2023/09/23 00:41:04;;;;;;;14.00;7.38;;;;;;;;;;5133697;27;20480;-71
2023/09/23 00:43:32;;;;;;;14.65;7.55;;;;;;;;;;5134030;27;20142;-71
2023/09/23 00:45:59;;;;;;;12.20;8.05;;;;;;;;;;5132659;27;20069;-71
2023/09/23 00:48:25;;;;;;;12.98;8.93;;;;;;;;;;5133518;27;20484;-71
2023/09/23 00:50:54;;;;;;;15.95;9.40;;;;;;;;;;5133303;27;20126;-71
2023/09/23 00:53:21;;;;;;;16.75;9.85;;;;;;;;;;5133486;27;20122;-71
2023/09/23 00:55:48;;;;;;;20.85;10.85;;;;;;;;;;5121377;27;20106;-71
2023/09/23 00:58:14;;;;;;;16.75;10.15;;;;;;;;;;5096242;28;20050;-71
2023/09/23 01:00:44;;;;;;;18.00;11.40;;;;;;;;;;5112659;28;20055;-71
2023/09/23 01:03:14;;;;;;;17.88;11.02;;;;;;;;;;5123411;27;20111;-71
2023/09/23 01:05:40;;;;;;;16.77;10.80;;;;;;;;;;5112288;28;20039;-74
2023/09/23 01:08:07;;;;;;;;;;;;;;;;;;5111815;28;20043;-70
2023/09/23 01:10:33;;;;;;;15.75;9.57;;;;;;;;;;5112975;28;19981;-71
2023/09/23 01:12:59;;;;;;;;;;;;;;;;;;5112101;28;20589;-71
2023/09/23 01:15:28;;;;;;;13.13;8.30;;;;;;;;;;5112995;28;20011;-71
2023/09/23 01:17:54;;;;;;;12.75;8.38;;;;;;;;;;5125837;27;20543;-71
2023/09/23 01:20:20;;;;;;;;;;;;;;;;;;5116557;27;20149;-71
2023/09/23 01:22:47;;;;;;;12.20;7.00;;;;;;;;;;5129794;27;19926;-71
2023/09/23 01:25:14;;;;;;;11.52;5.70;;;;;;;;;;5115944;27;20042;-71
2023/09/23 01:27:40;;;;;;;8.85;5.53;;;;;;;;;;5133250;27;20453;-71
2023/09/23 01:30:07;;;;;;;11.25;5.05;;;;;;;;;;5120726;27;20054;-71
2023/09/23 01:32:42;;;;;;;7.90;5.10;;;;;;;;;;5111700;27;20051;-71
2023/09/23 01:35:09;;;;;;;8.73;4.95;;;;;;;;;;5130795;27;20047;-71
2023/09/23 01:37:38;;;;;;;6.68;4.13;;;;;;;;;;5131379;27;20054;-71
2023/09/23 01:40:05;;;;;;;7.05;4.00;;;;;;;;;;5127095;27;20908;-70
2023/09/23 01:42:32;;;;;;;6.47;3.60;;;;;;;;;;5095649;28;20040;-71
2023/09/23 01:44:59;;;;;;;7.15;3.65;;;;;;;;;;5096043;27;20035;-71
2023/09/23 01:47:25;;;;;;;6.60;3.58;;;;;;;;;;5120452;27;20050;-71
2023/09/23 01:49:51;;;;;;;6.30;3.90;;;;;;;;;;5135632;27;20046;-71
2023/09/23 01:52:17;;;;;;;;;;;;;;;;;;5135250;27;20057;-72
2023/09/23 01:54:48;;;;;;;8.65;4.68;;;;;;;;;;5110984;27;19927;-71
2023/09/23 01:57:16;;;;;;;8.23;4.63;;;;;;;;;;5136146;27;20043;-71
2023/09/23 01:59:46;;;;;;;9.15;5.05;;;;;;;;;;5135882;27;20058;-71
2023/09/23 02:02:12;;;;;;;11.55;5.95;;;;;;;;;;5117323;27;20557;-71
2023/09/23 02:04:40;;;;;;;11.68;6.85;;;;;;;;;;5115113;27;20043;-71
2023/09/23 02:07:10;;;;;;;11.20;7.00;;;;;;;;;;5113821;27;20039;-71
2023/09/23 02:09:40;;;;;;;11.90;6.60;;;;;;;;;;5118971;27;20121;-71
2023/09/23 02:12:06;;;;;;;11.00;6.20;;;;;;;;;;5135125;27;20046;-71
2023/09/23 02:14:32;;;;;;;11.10;6.75;;;;;;;;;;5131058;27;20041;-74
2023/09/23 02:16:58;;;;;;;11.98;7.03;;;;;;;;;;5118393;27;20043;-71
2023/09/23 02:19:25;;;;;;;11.75;6.80;;;;;;;;;;5115100;27;20133;-71
2023/09/23 02:21:52;;;;;;;11.80;6.75;;;;;;;;;;5113492;27;20051;-71
2023/09/23 02:24:18;;;;;;;;;;;;;;;;;;5114565;27;20074;-71
2023/09/23 02:26:45;;;;;;;12.95;6.25;;;;;;;;;;5097835;27;19920;-71
2023/09/23 02:29:14;;;;;;;10.20;6.45;;;;;;;;;;5114245;27;20163;-71
2023/09/23 02:31:46;;;;;;;11.10;6.38;;;;;;;;;;5113967;28;20054;-71
2023/09/23 02:34:13;;;;;;;10.10;6.20;;;;;;;;;;5096422;27;20107;-72
2023/09/23 02:36:39;;;;;;;10.52;5.88;;;;;;;;;;5080288;28;20054;-71
2023/09/23 02:39:06;;;;;;;9.70;5.60;;;;;;;;;;5113924;28;20089;-71
2023/09/23 02:41:32;;;;;;;11.60;6.18;;;;;;;;;;5128838;28;20054;-71
2023/09/23 02:44:02;;;;;;;9.23;5.40;;;;;;;;;;5114378;28;20078;-71
2023/09/23 02:46:30;;;;;;;9.38;5.32;;;;;;;;;;5114109;28;20054;-71
2023/09/23 02:48:56;;;;;;;9.93;5.15;;;;;;;;;;5114245;28;20047;-71
2023/09/23 02:51:23;;;;;;;8.10;4.95;;;;;;;;;;5125308;27;20085;-71
2023/09/23 02:53:49;;;;;;;9.13;5.03;;;;;;;;;;5134858;27;20047;-71
2023/09/23 02:56:15;;;;;;;;;;;;;;;;;;5118234;27;20043;-71
2023/09/23 02:58:43;;;;;;;8.45;4.97;;;;;;;;;;5118330;27;19925;-71
2023/09/23 03:01:14;;;;;;;8.93;5.05;;;;;;;;;;5134543;27;20046;-71
2023/09/23 03:03:41;;;;;;;8.95;5.28;;;;;;;;;;5124867;28;20093;-71
2023/09/23 03:06:08;;;;;;;10.10;4.53;;;;;;;;;;5096258;28;20476;-72
2023/09/23 03:08:37;;;;;;;8.02;4.90;;;;;;;;;;5116077;27;20051;-71
2023/09/23 03:11:08;;;;;;;9.20;5.15;;;;;;;;;;5134576;27;20085;-71
2023/09/23 03:13:36;;;;;;;9.82;5.15;;;;;;;;;;5123128;28;20051;-71
2023/09/23 03:16:10;;;;;;;13.85;6.20;;;;;;;;;;5113974;28;20186;-73
2023/09/23 03:18:54;;;;;;;10.40;6.05;;;;;;;;;;5114566;28;20053;-72
2023/09/23 03:21:20;;;;;;;11.80;7.13;;;;;;;;;;5113147;28;20125;-71
2023/09/23 03:23:47;;;;;;;10.57;6.63;;;;;;;;;;5114026;28;20035;-72
2023/09/23 03:26:14;;;;;;;12.23;6.72;;;;;;;;;;5098275;28;20472;-71
2023/09/23 03:28:40;;;;;;;12.23;7.15;;;;;;;;;;5114532;28;20047;-72
2023/09/23 03:31:10;;;;;;;14.32;8.00;;;;;;;;;;5119610;27;20136;-71
2023/09/23 03:33:37;;;;;;;13.15;8.07;;;;;;;;;;5134891;27;20047;-71
2023/09/23 03:36:03;;;;;;;15.25;8.73;;;;;;;;;;5116974;27;20107;-74
2023/09/23 03:38:29;;;;;;;;;;;;;;;;;;5134257;27;20053;-71
2023/09/23 03:41:02;;;;;;;13.35;8.52;;;;;;;;;;5117728;27;19919;-72
2023/09/23 03:43:29;;;;;;;16.45;8.60;;;;;;;;;;5117928;27;20082;-71
2023/09/23 03:45:55;;;;;;;14.60;9.07;;;;;;;;;;5133925;27;20504;-71
2023/09/23 03:48:22;;;;;;;20.98;10.70;;;;;;;;;;5134280;27;20408;-71
2023/09/23 03:50:52;;;;;;;18.58;10.27;;;;;;;;;;5130345;27;20048;-71
2023/09/23 03:53:21;;;;;;;17.20;10.48;;;;;;;;;;5132858;27;20096;-72
2023/09/23 03:55:54;;;;;;;18.90;11.27;;;;;;;;;;5114509;28;20051;-71
2023/09/23 03:58:20;;;;;;;17.73;10.48;;;;;;;;;;5124716;27;20039;-72
2023/09/23 04:00:47;;;;;;;;;;;;;;;;;;5135019;27;20050;-72
2023/09/23 04:03:14;;;;;;;22.00;12.00;;;;;;;;;;5133990;27;19927;-71
2023/09/23 04:05:40;;;;;;;20.80;11.27;;;;;;;;;;5124472;27;20070;-71
2023/09/23 04:08:06;;;;;;;21.08;11.02;;;;;;;;;;5112350;28;20043;-71
2023/09/23 04:10:39;;;;;;;19.15;11.63;;;;;;;;;;5114245;28;20392;-71
2023/09/23 04:13:06;;;;;;;19.92;11.95;;;;;;;;;;5118297;27;20475;-72
2023/09/23 04:15:33;;;;;;;21.23;12.02;;;;;;;;;;5134685;27;20051;-71
2023/09/23 04:17:59;;;;;;;22.23;11.95;;;;;;;;;;5118027;27;20047;-71
2023/09/23 04:20:25;;;;;;;;;;;;;;;;;;5097030;28;20051;-71
2023/09/23 04:22:51;;;;;;;20.40;11.55;;;;;;;;;;5112397;28;20010;-71
2023/09/23 04:25:20;;;;;;;;;;;;;;;;;;5099486;27;20082;-72
2023/09/23 04:27:47;;;;;;;21.95;11.82;;;;;;;;;;5134152;27;19951;-72
2023/09/23 04:30:15;;;;;;;25.38;13.48;;;;;;;;;;5133841;27;20051;-72
2023/09/23 04:32:42;;;;;;;20.58;12.48;;;;;;;;;;5117235;27;20073;-71
2023/09/23 04:35:09;;;;;;;20.20;12.35;;;;;;;;;;5125428;27;20059;-72
2023/09/23 04:37:37;;;;;;;20.83;12.05;;;;;;;;;;5128649;27;20070;-71
2023/09/23 04:40:10;;;;;;;26.23;12.93;;;;;;;;;;5113632;28;20051;-72
2023/09/23 04:42:43;;;;;;;22.20;12.18;;;;;;;;;;5113505;28;20035;-71
2023/09/23 04:45:10;;;;;;;22.27;12.35;;;;;;;;;;5098936;27;20099;-72
2023/09/23 04:47:37;;;;;;;22.02;12.45;;;;;;;;;;5116452;27;20081;-72
2023/09/23 04:50:04;;;;;;;23.52;12.68;;;;;;;;;;5099836;27;20095;-72
2023/09/23 04:52:31;;;;;;;22.58;12.55;;;;;;;;;;5097769;27;20150;-71
2023/09/23 04:54:57;;;;;;;26.73;13.13;;;;;;;;;;5099735;27;20043;-71
2023/09/23 04:57:23;;;;;;;26.23;13.88;;;;;;;;;;5117929;27;20381;-72
2023/09/23 04:59:49;;;;;;;25.92;13.73;;;;;;;;;;5134353;27;20093;-72
2023/09/23 05:02:16;;;;;;;;;;;;;;;;;;5132545;27;20456;-72
2023/09/23 05:04:45;;;;;;;29.10;14.60;;;;;;;;;;5116295;27;19942;-72
2023/09/23 05:07:12;;;;;;;31.27;15.65;;;;;;;;;;5114592;27;20391;-72
2023/09/23 05:09:39;;;;;;;31.90;17.05;;;;;;;;;;5115277;27;20547;-72
2023/09/23 05:12:05;;;;;;;30.25;16.13;;;;;;;;;;5098563;27;20488;-72
2023/09/23 05:14:31;;;;;;;;;;;;;;;;;;5115463;27;20054;-72
2023/09/23 05:16:58;;;;;;;29.90;15.20;;;;;;;;;;5115883;27;19919;-72
2023/09/23 05:19:27;;;;;;;31.05;15.82;;;;;;;;;;5115674;27;20050;-72
2023/09/23 05:21:53;;;;;;;34.55;16.95;;;;;;;;;;5114840;27;20050;-72
2023/09/23 05:24:20;;;;;;;35.78;16.63;;;;;;;;;;5114657;27;20102;-72
2023/09/23 05:26:48;;;;;;;39.08;18.33;;;;;;;;;;5121478;27;20038;-72
2023/09/23 05:29:15;;;;;;;41.25;20.00;;;;;;;;;;5100277;27;20068;-72
2023/09/23 05:31:41;;;;;;;42.75;20.88;;;;;;;;;;5098961;27;20050;-72
2023/09/23 05:34:08;;;;;;;38.53;20.05;;;;;;;;;;5115891;27;20101;-72
2023/09/23 05:36:34;;;;;;;40.85;21.35;;;;;;;;;;5113984;27;20523;-72
2023/09/23 05:39:00;;;;;;;41.38;20.27;;;;;;;;;;5115284;27;20430;-72
2023/09/23 05:41:26;;;;;;;;;;;;;;;;;;5115363;27;20043;-72
2023/09/23 05:43:52;;;;;;;39.72;21.15;;;;;;;;;;5114013;27;19979;-72
2023/09/23 05:46:19;;;;;;;39.67;21.15;;;;;;;;;;5086822;27;20062;-72
2023/09/23 05:48:48;;;;;;;44.70;21.85;;;;;;;;;;5115661;27;20528;-72
2023/09/23 05:51:15;;;;;;;41.85;22.58;;;;;;;;;;5097715;27;20130;-74
2023/09/23 05:53:42;;;;;;;40.70;21.38;;;;;;;;;;5118550;27;20043;-72
2023/09/23 05:56:08;;;;;;;44.33;23.30;;;;;;;;;;5118897;27;20047;-72
2023/09/23 05:58:34;;;;;;;44.42;24.13;;;;;;;;;;5122080;27;20051;-72
2023/09/23 06:01:00;;;;;;;;;;;;;;;;;;5115887;27;20384;-72
2023/09/23 06:03:26;;;;;;;42.08;22.80;;;;;;;;;;5114478;27;19920;-72
2023/09/23 06:05:52;;;;;;;44.08;23.00;;;;;;;;;;5115425;27;20047;-72
2023/09/23 06:08:18;;;;;;;47.55;23.65;;;;;;;;;;5133086;27;20043;-73
2023/09/23 06:10:44;;;;;;;44.95;23.90;;;;;;;;;;5115314;27;20150;-72
2023/09/23 06:13:10;;;;;;;;;;;;;;;;;;5087516;27;20043;-72
2023/09/23 06:15:36;;;;;;;47.00;23.42;;;;;;;;;;5135185;27;19925;-72
2023/09/23 06:18:03;;;;;;;46.75;24.15;;;;;;;;;;5118806;27;20511;-72
2023/09/23 06:20:29;;;;;;;43.92;22.92;;;;;;;;;;5114631;27;20050;-72
2023/09/23 06:22:55;;;;;;;46.38;24.40;;;;;;;;;;5129452;27;20077;-72
2023/09/23 06:25:21;;;;;;;43.70;24.00;;;;;;;;;;5117769;27;20396;-72
2023/09/23 06:27:48;;;;;;;;;;;;;;;;;;5154330;27;20043;-72
2023/09/23 06:30:15;;;;;;;46.65;24.23;;;;;;;;;;5135695;27;19973;-72
2023/09/23 06:32:41;;;;;;;44.08;23.05;;;;;;;;;;5117601;27;20047;-72
2023/09/23 06:35:10;;;;;;;40.83;22.52;;;;;;;;;;5118361;27;20477;-72
2023/09/23 06:37:36;;;;;;;39.83;22.48;;;;;;;;;;5127700;27;20144;-72
2023/09/23 06:40:03;;;;;;;43.35;23.00;;;;;;;;;;5116405;28;20047;-73
2023/09/23 06:42:30;;;;;;;42.17;22.98;;;;;;;;;;5114591;27;20448;-72
2023/09/23 06:44:56;;;;;;;;;;;;;;;;;;5108422;28;20047;-73
2023/09/23 06:47:22;;;;;;;39.08;21.48;;;;;;;;;;5097048;28;19919;-72
2023/09/23 06:49:48;;;;;;;;;;;;;;;;;;5115171;28;20424;-71
2023/09/23 06:52:14;;;;;;;40.25;21.95;;;;;;;;;;5113649;28;19974;-72
2023/09/23 06:54:40;;;;;;;36.17;20.98;;;;;;;;;;5125571;27;20134;-72
2023/09/23 06:57:06;;;;;;;;;;;;;;;;;;5134578;27;20082;-72
2023/09/23 06:59:32;;;;;;;40.85;21.30;;;;;;;;;;5114219;28;19981;-71
2023/09/23 07:01:58;;;;;;;45.83;23.23;;;;;;;;;;5114337;28;20049;-71
2023/09/23 07:04:24;;;;;;;43.80;23.08;;;;;;;;;;5135115;27;20095;-72
2023/09/23 07:06:50;;;;;;;;;;;;;;;;;;5125409;28;20120;-73
2023/09/23 07:09:16;;;;;;;47.42;24.25;;;;;;;;;;5130527;28;19973;-72
2023/09/23 07:11:42;;;;;;;42.53;23.80;;;;;;;;;;5114105;28;20042;-72
2023/09/23 07:14:08;;;;;;;;;;;;;;;;;;5115038;28;20047;-73
2023/09/23 07:16:34;;;;;;;48.97;25.48;;;;;;;;;;5113822;28;19919;-72
2023/09/23 07:19:00;;;;;;;;;;;;;;;;;;5114923;28;20590;-72
2023/09/23 07:21:27;;;;;;;45.88;24.52;;;;;;;;;;5118065;27;19923;-72
2023/09/23 07:23:53;;;;;;;42.25;23.23;;;;;;;;;;5126598;27;20065;-72
2023/09/23 07:26:22;;;;;;;49.33;24.23;;;;;;;;;;5126085;27;20096;-72
2023/09/23 07:28:50;;;;;;;44.58;23.52;;;;;;;;;;5118075;27;20043;-71
2023/09/23 07:31:17;;;;;;;43.75;22.30;;;;;;;;;;5118080;27;20100;-72
2023/09/23 07:33:44;;;;;;;40.67;22.27;;;;;;;;;;5117765;27;20764;-72
2023/09/23 07:36:13;;;;;;;38.08;22.25;;;;;;;;;;5117318;27;20051;-72
2023/09/23 07:38:39;;;;;;;36.15;21.33;;;;;;;;;;5117179;27;20092;-72
2023/09/23 07:41:06;;;;;;;38.35;21.42;;;;;;;;;;5118137;27;20050;-72
2023/09/23 07:43:32;;;;;;;37.92;21.27;;;;;;;;;;5117548;27;20079;-73
2023/09/23 07:45:58;;;;;;;39.10;21.45;;;;;;;;;;5117528;27;20111;-72
2023/09/23 07:48:24;;;;;;;;;;;;;;;;;;5124233;27;20151;-76
2023/09/23 07:50:51;;;;;;;35.92;20.00;;;;;;;;;;5124336;27;19923;-72
2023/09/23 07:53:17;;;;;;;34.13;19.73;;;;;;;;;;5116386;27;20054;-72
2023/09/23 07:55:46;;;;;;;34.50;19.98;;;;;;;;;;5117381;27;20047;-68
2023/09/23 07:58:12;;;;;;;32.97;19.48;;;;;;;;;;5117730;27;20525;-72
2023/09/23 08:00:38;;;;;;;29.17;17.42;;;;;;;;;;5087520;27;20476;-67
2023/09/23 08:03:04;;;;;;;;;;;;;;;;;;5138008;27;20479;-73
2023/09/23 08:05:32;;;;;;;31.13;18.58;;;;;;;;;;5120673;27;19919;-73
2023/09/23 08:07:58;;;;;;;31.65;18.17;;;;;;;;;;5136540;27;20092;-73
2023/09/23 08:10:24;;;;;;;;;;;;;;;;;;5125920;27;20197;-76
2023/09/23 08:12:50;;;;;;;28.33;16.58;;;;;;;;;;5116912;27;20182;-72
2023/09/23 08:15:16;;;;;;;28.65;17.73;;;;;;;;;;5100692;27;20054;-74
2023/09/23 08:17:42;;;;;;;;;;;;;;;;;;5116947;27;20089;-74
2023/09/23 08:20:19;;;;;;;30.70;17.00;;;;;;;;;;5117468;27;20034;-73
2023/09/23 08:22:46;;;;;;;27.90;16.75;;;;;;;;;;5115128;27;20500;-74
2023/09/23 08:25:13;;;;;;;24.45;15.93;;;;;;;;;;5100375;27;20373;-73
2023/09/23 08:27:39;;;;;;;27.58;16.63;;;;;;;;;;5106770;27;20122;-73
2023/09/23 08:30:07;;;;;;;24.75;15.40;;;;;;;;;;5125719;27;20039;-73
2023/09/23 08:32:33;;;;;;;24.17;14.80;;;;;;;;;;5099541;27;20180;-76
2023/09/23 08:34:59;;;;;;;;;;;;;;;;;;5112338;27;20050;-74
2023/09/23 08:37:25;;;;;;;25.75;15.38;;;;;;;;;;5129655;27;19923;-73
2023/09/23 08:39:51;;;;;;;25.20;13.88;;;;;;;;;;5127338;27;20062;-73
2023/09/23 08:42:17;;;;;;;23.40;15.10;;;;;;;;;;5144245;27;20042;-73
2023/09/23 08:44:43;;;;;;;;;;;;;;;;;;5145388;27;20062;-73
2023/09/23 08:47:10;;;;;;;21.38;14.68;;;;;;;;;;5146700;27;19919;-72
2023/09/23 08:49:37;;;;;;;23.10;13.77;;;;;;;;;;5124909;27;20100;-76
2023/09/23 08:52:04;;;;;;;23.95;14.55;;;;;;;;;;5144330;27;20049;-73
2023/09/23 08:54:31;;;;;;;22.00;14.38;;;;;;;;;;5129229;27;20038;-73
2023/09/23 08:56:58;;;;;;;22.75;13.38;;;;;;;;;;5134213;27;20051;-72
2023/09/23 08:59:26;;;;;;;25.15;15.10;;;;;;;;;;5118889;27;20050;-73
2023/09/23 09:01:54;;;;;;;22.45;14.60;;;;;;;;;;5146532;27;20095;-72
2023/09/23 09:04:20;;;;;;;21.63;13.95;;;;;;;;;;5118795;27;20043;-70
2023/09/23 09:06:55;;;;;;;23.77;14.52;;;;;;;;;;5096567;27;20090;-72
2023/09/23 09:09:23;;;;;;;22.52;14.82;;;;;;;;;;5118826;27;20058;-71
2023/09/23 09:11:50;;;;;;;19.48;13.77;;;;;;;;;;5098840;27;20054;-70
2023/09/23 09:14:16;;;;;;;21.13;13.23;;;;;;;;;;5116290;27;20058;-70
2023/09/23 09:16:42;;;;;;;21.10;13.57;;;;;;;;;;5129679;27;20118;-70
2023/09/23 09:19:08;;;;;;;;;;;;;;;;;;5137079;27;20514;-71
2023/09/23 09:21:35;;;;;;;23.10;13.60;;;;;;;;;;5135683;27;19983;-71
2023/09/23 09:24:02;;;;;;;21.35;13.13;;;;;;;;;;5118422;27;20669;-71
2023/09/23 09:26:28;;;;;;;20.23;13.23;;;;;;;;;;5115172;27;20618;-71
2023/09/23 09:28:54;;;;;;;;;;;;;;;;;;5104007;27;20122;-71
2023/09/23 09:31:20;;;;;;;23.07;12.93;;;;;;;;;;5115705;27;19919;-71
2023/09/23 09:33:50;;;;;;;;;;;;;;;;;;5117937;27;20276;-71
2023/09/23 09:36:23;;;;;;;20.95;12.55;;;;;;;;;;5118170;27;19919;-71
2023/09/23 09:38:55;;;;;;;20.00;12.32;;;;;;;;;;5135401;27;20042;-74
2023/09/23 09:41:26;;;;;;;19.85;12.75;;;;;;;;;;5131335;27;20073;-71
2023/09/23 09:43:52;;;;;;;16.88;12.13;;;;;;;;;;5107202;27;20656;-71
2023/09/23 09:46:20;;;;;;;16.77;11.68;;;;;;;;;;5108819;28;20056;-65
2023/09/23 09:48:48;;;;;;;19.10;12.60;;;;;;;;;;5112442;28;20543;-69
2023/09/23 09:51:15;;;;;;;17.75;11.82;;;;;;;;;;5117395;27;20492;-70
2023/09/23 09:53:44;;;;;;;17.88;11.02;;;;;;;;;;5137371;27;20043;-71
2023/09/23 09:56:10;;;;;;;16.00;10.85;;;;;;;;;;5132155;27;20051;-73
2023/09/23 09:58:37;;;;;;;16.63;10.48;;;;;;;;;;5132609;27;20457;-71
2023/09/23 10:01:04;;;;;;;16.08;10.43;;;;;;;;;;5131557;27;20051;-71
2023/09/23 10:03:30;;;;;;;17.58;11.00;;;;;;;;;;5114905;27;20417;-71
2023/09/23 10:05:56;;;;;;;;;;;;;;;;;;5113705;27;20092;-72
2023/09/23 10:08:25;;;;;;;17.38;10.20;;;;;;;;;;5110350;28;20395;-71
2023/09/23 10:10:52;;;;;;;12.90;8.82;;;;;;;;;;5104055;28;20043;-72
2023/09/23 10:13:20;;;;;;;15.32;9.35;;;;;;;;;;5113197;28;20051;-72
2023/09/23 10:15:46;;;;;;;13.63;8.73;;;;;;;;;;5127284;27;20400;-71
2023/09/23 10:18:17;;;;;;;14.75;8.45;;;;;;;;;;5107991;28;20046;-71
2023/09/23 10:20:51;;;;;;;13.65;9.80;;;;;;;;;;5100292;28;20459;-72
2023/09/23 10:23:18;;;;;;;11.73;8.43;;;;;;;;;;5109641;27;20074;-72
2023/09/23 10:25:45;;;;;;;17.13;8.73;;;;;;;;;;5131227;27;20080;-72
2023/09/23 10:28:21;;;;;;;16.30;9.70;;;;;;;;;;5131560;27;20099;-72
2023/09/23 10:30:58;;;;;;;15.88;8.13;;;;;;;;;;5114765;28;20043;-71
2023/09/23 10:33:26;;;;;;;13.13;7.82;;;;;;;;;;5121570;27;20048;-72
2023/09/23 10:35:52;;;;;;;15.70;8.63;;;;;;;;;;5124056;27;20047;-74
2023/09/23 10:38:22;;;;;;;15.13;7.85;;;;;;;;;;5108215;27;20122;-72
2023/09/23 10:40:54;;;;;;;12.30;7.78;;;;;;;;;;5111248;28;20044;-74
2023/09/23 10:43:21;;;;;;;14.27;7.35;;;;;;;;;;5094219;28;20087;-71
2023/09/23 10:45:48;;;;;;;14.95;8.77;;;;;;;;;;5093916;28;20066;-70
2023/09/23 10:48:16;;;;;;;13.05;7.13;;;;;;;;;;5110241;28;20082;-70
2023/09/23 10:50:42;;;;;;;13.43;7.90;;;;;;;;;;5111363;28;20039;-70
2023/09/23 10:53:08;;;;;;;12.45;7.22;;;;;;;;;;5109301;28;20542;-71
2023/09/23 10:55:35;;;;;;;15.63;7.10;;;;;;;;;;5125961;27;20046;-70
2023/09/23 10:58:02;;;;;;;12.45;6.43;;;;;;;;;;5128154;27;20044;-71
2023/09/23 11:00:33;;;;;;;9.88;6.38;;;;;;;;;;5115540;28;20130;-71
2023/09/23 11:03:05;;;;;;;10.50;6.25;;;;;;;;;;5114650;28;20058;-71
2023/09/23 11:05:31;;;;;;;12.07;6.20;;;;;;;;;;5098217;28;20040;-71
2023/09/23 11:07:57;;;;;;;;;;;;;;;;;;5118821;27;20450;-71
2023/09/23 11:10:23;;;;;;;8.43;4.50;;;;;;;;;;5124071;27;19969;-71
2023/09/23 11:12:50;;;;;;;9.35;4.13;;;;;;;;;;5098134;28;20048;-70
2023/09/23 11:15:16;;;;;;;9.30;3.92;;;;;;;;;;5114704;28;20567;-71
2023/09/23 11:17:42;;;;;;;;;;;;;;;;;;5114911;28;20511;-72
2023/09/23 11:20:10;;;;;;;11.48;3.75;;;;;;;;;;5097650;28;20265;-71
2023/09/23 11:22:37;;;;;;;6.63;3.38;;;;;;;;;;5096392;28;20048;-71
2023/09/23 11:25:09;;;;;;;6.07;3.25;;;;;;;;;;5114371;28;20480;-72
2023/09/23 11:27:36;;;;;;;9.77;3.22;;;;;;;;;;5116110;27;20499;-72
2023/09/23 11:30:03;;;;;;;5.90;3.33;;;;;;;;;;5114461;28;20051;-71
2023/09/23 11:32:30;;;;;;;10.73;3.80;;;;;;;;;;5097700;28;20063;-72
2023/09/23 11:34:56;;;;;;;6.60;2.95;;;;;;;;;;5127073;27;20087;-71
2023/09/23 11:37:23;;;;;;;7.07;3.40;;;;;;;;;;5132771;27;20514;-72
2023/09/23 11:39:49;;;;;;;8.38;3.60;;;;;;;;;;5135164;27;20503;-71
2023/09/23 11:42:15;;;;;;;6.40;3.35;;;;;;;;;;5124083;27;20043;-71
2023/09/23 11:44:42;;;;;;;7.75;3.42;;;;;;;;;;5097880;27;20031;-71
2023/09/23 11:47:10;;;;;;;9.27;3.90;;;;;;;;;;5127108;27;20099;-71
2023/09/23 11:49:36;;;;;;;8.23;4.40;;;;;;;;;;5118016;27;20043;-71
2023/09/23 11:52:12;;;;;;;8.30;4.32;;;;;;;;;;5116450;27;20043;-73
2023/09/23 11:54:38;;;;;;;6.75;4.53;;;;;;;;;;5106083;28;20438;-71
2023/09/23 11:57:04;;;;;;;11.13;4.88;;;;;;;;;;5108648;27;20138;-71
2023/09/23 11:59:30;;;;;;;10.55;5.30;;;;;;;;;;5119689;27;20118;-69
2023/09/23 12:01:56;;;;;;;;;;;;;;;;;;5114184;28;20577;-70
2023/09/23 12:04:22;;;;;;;6.22;4.10;;;;;;;;;;5113392;28;19919;-71
2023/09/23 12:06:48;;;;;;;;;;;;;;;;;;5111000;27;20551;-71
2023/09/23 12:09:14;;;;;;;8.55;3.83;;;;;;;;;;5129505;27;20014;-72
2023/09/23 12:11:40;;;;;;;;;;;;;;;;;;5117853;27;20047;-71
2023/09/23 12:14:08;;;;;;;6.43;3.70;;;;;;;;;;5134171;27;20321;-72
2023/09/23 12:16:35;;;;;;;7.72;2.80;;;;;;;;;;5108363;28;20078;-71
2023/09/23 12:19:01;;;;;;;8.13;2.85;;;;;;;;;;5115952;27;20046;-72
2023/09/23 12:21:27;;;;;;;4.25;2.30;;;;;;;;;;5153628;27;20372;-72
2023/09/23 12:23:59;;;;;;;6.05;2.55;;;;;;;;;;5137441;27;20042;-71
2023/09/23 12:26:28;;;;;;;5.53;2.42;;;;;;;;;;5138087;27;20069;-72
2023/09/23 12:28:55;;;;;;;6.68;2.38;;;;;;;;;;5137757;27;20048;-71
2023/09/23 12:31:21;;;;;;;6.85;2.20;;;;;;;;;;5137083;27;20055;-71
2023/09/23 12:33:47;;;;;;;6.68;2.30;;;;;;;;;;5138206;27;20047;-71
2023/09/23 12:36:13;;;;;;;8.40;2.35;;;;;;;;;;5132732;27;20047;-71
2023/09/23 12:38:39;;;;;;;5.03;2.40;;;;;;;;;;5113481;27;20080;-71
2023/09/23 12:41:05;;;;;;;6.45;2.70;;;;;;;;;;5113330;28;20047;-74
2023/09/23 12:43:31;;;;;;;6.97;2.80;;;;;;;;;;5113092;28;20044;-71
2023/09/23 12:45:57;;;;;;;;;;;;;;;;;;5113308;28;20106;-71
2023/09/23 12:48:23;;;;;;;4.68;2.33;;;;;;;;;;5122897;27;19958;-71
2023/09/23 12:50:49;;;;;;;;;;;;;;;;;;5134369;27;20074;-71
2023/09/23 12:53:15;;;;;;;5.38;2.05;;;;;;;;;;5131143;27;20296;-71
2023/09/23 12:55:41;;;;;;;;;;;;;;;;;;5130214;27;20492;-71
2023/09/23 12:58:08;;;;;;;4.47;2.10;;;;;;;;;;5114953;27;19945;-74
2023/09/23 13:00:34;;;;;;;3.88;2.30;;;;;;;;;;5115957;27;20135;-71
2023/09/23 13:03:00;;;;;;;5.32;2.70;;;;;;;;;;5095205;28;20043;-71
2023/09/23 13:05:26;;;;;;;;;;;;;;;;;;5096056;28;20036;-71
2023/09/23 13:07:52;;;;;;;4.82;2.55;;;;;;;;;;5111288;28;19927;-72
2023/09/23 13:10:18;;;;;;;;;;;;;;;;;;5112854;28;20047;-71
2023/09/23 13:12:44;;;;;;;5.95;2.47;;;;;;;;;;5112889;28;19920;-71
2023/09/23 13:15:11;;;;;;;;;;;;;;;;;;5096268;28;20054;-74
2023/09/23 13:17:37;;;;;;;4.63;2.28;;;;;;;;;;5112474;28;19920;-70
2023/09/23 13:20:04;;;;;;;7.28;2.40;;;;;;;;;;5132656;27;20138;-71
2023/09/23 13:22:30;;;;;;;7.00;2.50;;;;;;;;;;5114335;27;20058;-71
2023/09/23 13:24:56;;;;;;;7.15;2.88;;;;;;;;;;5127485;27;20050;-72
2023/09/23 13:27:22;;;;;;;;;;;;;;;;;;5131680;27;20057;-70
2023/09/23 13:29:48;;;;;;;5.35;2.83;;;;;;;;;;5112562;28;20014;-71
2023/09/23 13:32:16;;;;;;;9.45;3.28;;;;;;;;;;5115821;27;20051;-72
2023/09/23 13:34:43;;;;;;;4.60;2.40;;;;;;;;;;5111938;28;20040;-71
2023/09/23 13:37:10;;;;;;;5.40;2.40;;;;;;;;;;5129871;27;20051;-71
2023/09/23 13:39:37;;;;;;;4.47;2.20;;;;;;;;;;5110786;28;20051;-71
2023/09/23 13:42:04;;;;;;;6.68;1.75;;;;;;;;;;5124211;27;20550;-71
2023/09/23 13:44:30;;;;;;;1.63;1.42;;;;;;;;;;5137739;27;20047;-70
2023/09/23 13:46:56;;;;;;;;;;;;;;;;;;5122412;27;20055;-71
2023/09/23 13:49:22;;;;;;;3.83;1.30;;;;;;;;;;5131968;27;20249;-72
2023/09/23 13:51:48;;;;;;;3.25;1.25;;;;;;;;;;5127489;27;20411;-71
2023/09/23 13:54:14;;;;;;;;;;;;;;;;;;5128192;27;20059;-74
2023/09/23 13:56:41;;;;;;;2.45;1.50;;;;;;;;;;5110784;28;20385;-72
2023/09/23 13:59:07;;;;;;;4.50;1.42;;;;;;;;;;5127326;27;20054;-72
2023/09/23 14:01:33;;;;;;;4.65;1.38;;;;;;;;;;5110121;27;20111;-71
2023/09/23 14:03:59;;;;;;;1.42;1.08;;;;;;;;;;5128497;27;20127;-72
2023/09/23 14:06:25;;;;;;;2.05;1.10;;;;;;;;;;5124189;27;20048;-72
2023/09/23 14:08:52;;;;;;;;;;;;;;;;;;5086501;28;20043;-72
2023/09/23 14:11:18;;;;;;;2.15;1.00;;;;;;;;;;5124803;27;19930;-74
2023/09/23 14:13:45;;;;;;;1.65;1.00;;;;;;;;;;5121504;27;20046;-72
2023/09/23 14:16:11;;;;;;;1.77;0.85;;;;;;;;;;5104130;28;20047;-72
2023/09/23 14:18:37;;;;;;;2.38;0.95;;;;;;;;;;5110808;27;20104;-71
2023/09/23 14:21:03;;;;;;;2.53;1.00;;;;;;;;;;5116534;27;20123;-73
2023/09/23 14:23:30;;;;;;;1.23;0.95;;;;;;;;;;5129343;27;20055;-72
2023/09/23 14:25:56;;;;;;;2.65;1.10;;;;;;;;;;5108424;28;20093;-72
2023/09/23 14:28:22;;;;;;;2.22;0.90;;;;;;;;;;5123748;27;20114;-72
2023/09/23 14:30:48;;;;;;;1.42;0.98;;;;;;;;;;5108124;27;20562;-72
2023/09/23 14:33:15;;;;;;;4.43;1.10;;;;;;;;;;5104346;28;20059;-73
2023/09/23 14:35:41;;;;;;;2.88;0.80;;;;;;;;;;5118534;27;20050;-72
2023/09/23 14:38:06;;;;;;;;;;;;;;;;;;5092974;28;20040;-72
2023/09/23 14:40:33;;;;;;;2.00;1.02;;;;;;;;;;5124280;27;19919;-72
2023/09/23 14:42:59;;;;;;;1.42;0.88;;;;;;;;;;5099740;28;20090;-72
2023/09/23 14:45:25;;;;;;;1.63;0.98;;;;;;;;;;5105329;28;20043;-72